Doris Moran — WRU2125 — position and weather

sailwx.info

Track history (hours):
 
Tides and Currents Weather Stations Pressure Air Temp Water Temp Dewpoint Dewpoint Depression Visibility Wind Speed Wind Dir Waves Ship Positions

Doris Moran

Owner: MORAN TOWING CORPORATION, New Canaan, CT. More information available from US FCC via Universal Licensing System and Coast Guard Vessel Documentation Center.

Last reported at 2017-Apr-19 14:16 UTC. Time now 2017-May-28 12:33 UTC.
Position N 40°38' W 074°08'.
Warning: this ship's position is 38 days out of date.

Length 36 m; draft 5.3 m.

Type: Tug. MMSI: 366939790.

Date/timePositionNaut miles runAvg speedWind from/ knotsBaromVisibWave heightAir tempDewpointWater temp
2017-Apr-19 14:16N 40°38' W 074°08'0 0.0
2017-Apr-19 13:25N 40°38' W 074°08'0 0.0
2017-Apr-19 12:58N 40°38' W 074°08'0 0.0
2017-Apr-19 12:28N 40°38' W 074°08'0 0.0
2017-Apr-19 11:58N 40°38' W 074°08'0 0.1
2017-Apr-19 11:28N 40°38' W 074°08'0 0.0
2017-Apr-19 10:58N 40°38' W 074°08'0 0.0
2017-Apr-19 10:28N 40°38' W 074°08'0 0.0
2017-Apr-19 09:58N 40°38' W 074°08'0 0.0
2017-Apr-19 09:28N 40°38' W 074°08'0 0.0
2017-Apr-19 08:58N 40°38' W 074°08'0 0.0
2017-Apr-19 08:28N 40°38' W 074°08'0 0.0
2017-Apr-19 07:58N 40°38' W 074°08'0 0.0
2017-Apr-19 07:28N 40°38' W 074°08'0 0.0
2017-Apr-19 06:58N 40°38' W 074°08'0 0.0
2017-Apr-19 06:28N 40°38' W 074°08'0 0.0
2017-Apr-19 05:58N 40°38' W 074°08'0 0.0
2017-Apr-19 05:28N 40°38' W 074°08'0 0.0
2017-Apr-19 04:58N 40°38' W 074°08'0 0.0
2017-Apr-19 04:28N 40°38' W 074°08'0 0.0
2017-Apr-19 03:58N 40°38' W 074°08'0 0.0
2017-Apr-19 03:28N 40°38' W 074°08'0 0.0
2017-Apr-19 02:58N 40°38' W 074°08'0 0.0
2017-Apr-19 02:28N 40°38' W 074°08'0 0.0
2017-Apr-19 01:58N 40°38' W 074°08'0 0.0
2017-Apr-19 01:28N 40°38' W 074°08'0 0.1
2017-Apr-19 01:00N 40°39' W 074°08'510.3
2017-Apr-19 00:30N 40°41' W 074°02'1 2.0
2017-Apr-19 00:00N 40°41' W 074°01'4 8.2
2017-Apr-18 23:30N 40°39' W 074°05'3 5.9
2017-Apr-18 23:00N 40°39' W 074°09'3 5.5
2017-Apr-18 22:30N 40°42' W 074°08'1 1.2
2017-Apr-18 22:01N 40°42' W 074°09'0 0.1
2017-Apr-18 21:30N 40°42' W 074°09'2 4.1
2017-Apr-18 21:00N 40°40' W 074°09'1 2.8
2017-Apr-18 20:29N 40°38' W 074°08'0 0.0
2017-Apr-18 19:59N 40°38' W 074°08'0 0.0
2017-Apr-18 19:29N 40°38' W 074°08'0 0.0
2017-Apr-18 18:59N 40°38' W 074°08'0 0.0
2017-Apr-18 18:29N 40°38' W 074°08'0 0.0
2017-Apr-18 17:59N 40°38' W 074°08'0 0.0
2017-Apr-18 17:29N 40°38' W 074°08'0 0.0
2017-Apr-18 16:59N 40°38' W 074°08'0 0.0
2017-Apr-18 16:29N 40°38' W 074°08'0 0.0
2017-Apr-18 15:59N 40°38' W 074°08'0 0.0
2017-Apr-18 15:29N 40°38' W 074°08'0 0.0
2017-Apr-18 14:59N 40°38' W 074°08'0 0.0
2017-Apr-18 13:59N 40°38' W 074°08'0 0.0
2017-Apr-18 13:29N 40°38' W 074°08'0 0.0
2017-Apr-18 12:59N 40°38' W 074°08'0 0.0
2017-Apr-18 12:29N 40°38' W 074°08'0 0.0
2017-Apr-18 11:59N 40°38' W 074°08'0 0.0
2017-Apr-18 11:29N 40°38' W 074°08'0 0.0
2017-Apr-18 10:59N 40°38' W 074°08'0 0.0
2017-Apr-18 10:29N 40°38' W 074°08'0 0.0
2017-Apr-18 09:59N 40°38' W 074°08'0 0.0
2017-Apr-18 09:29N 40°38' W 074°08'0 0.0
2017-Apr-18 09:00N 40°38' W 074°08'2 3.6
2017-Apr-18 08:30N 40°39' W 074°05'1 2.4
2017-Apr-18 08:00N 40°39' W 074°04'3 5.4
2017-Apr-18 07:28N 40°38' W 074°08'0 0.0
2017-Apr-18 06:58N 40°38' W 074°08'0 0.0
2017-Apr-18 06:28N 40°38' W 074°08'0 0.0
2017-Apr-18 05:58N 40°38' W 074°08'0 0.0
2017-Apr-18 05:28N 40°38' W 074°08'0 0.0
2017-Apr-18 05:00N 40°38' W 074°08'0 0.0
2017-Apr-18 04:30N 40°38' W 074°08'0 0.0
2017-Apr-18 04:00N 40°38' W 074°08'0 0.0
2017-Apr-18 03:30N 40°38' W 074°08'0 0.0
2017-Apr-18 03:00N 40°39' W 074°08'0 0.0
2017-Apr-18 02:30N 40°39' W 074°08'0 0.0
2017-Apr-18 02:00N 40°38' W 074°08'0 0.0
2017-Apr-18 01:30N 40°39' W 074°08'0 0.0
2017-Apr-18 01:00N 40°39' W 074°08'0 0.0
2017-Apr-18 00:30N 40°38' W 074°08'0 0.0
2017-Apr-18 00:00N 40°38' W 074°08'0 0.0
2017-Apr-17 23:30N 40°38' W 074°08'0 0.0
2017-Apr-17 23:00N 40°38' W 074°08'0 0.0
2017-Apr-17 22:30N 40°38' W 074°08'0 0.0
2017-Apr-17 22:00N 40°38' W 074°08'0 0.0
2017-Apr-17 21:30N 40°39' W 074°08'0 0.0
2017-Apr-17 21:00N 40°38' W 074°08'0 0.0
2017-Apr-17 20:30N 40°38' W 074°08'0 0.7
2017-Apr-17 20:00N 40°39' W 074°08'3 6.6
2017-Apr-17 19:30N 40°42' W 074°09'0 0.1
2017-Apr-17 19:00N 40°42' W 074°09'2 3.7
2017-Apr-17 18:30N 40°40' W 074°08'2 3.4
2017-Apr-17 18:00N 40°38' W 074°08'0 0.0
2017-Apr-17 17:27N 40°38' W 074°08'0 0.0
2017-Apr-17 17:01N 40°38' W 074°08'4 8.2
2017-Apr-17 16:30N 40°40' W 074°03'4 8.7
2017-Apr-17 16:00N 40°43' W 073°58'3 5.7
2017-Apr-17 15:30N 40°46' W 073°57'0 0.0
2017-Apr-17 15:00N 40°46' W 073°57'0 0.0
2017-Apr-17 14:00N 40°46' W 073°57'0 0.0
2017-Apr-17 13:27N 40°46' W 073°57'0 1.0
2017-Apr-17 13:00N 40°45' W 073°57'611.5
2017-Apr-17 12:30N 40°41' W 074°02'5 8.7
2017-Apr-17 11:56N 40°38' W 074°08'0 0.0
2017-Apr-17 11:29N 40°38' W 074°08'2 4.4
2017-Apr-17 11:01N 40°39' W 074°05'2 3.0
2017-Apr-17 10:30N 40°39' W 074°07'1 1.1
2017-Apr-17 09:59N 40°38' W 074°08'0 0.0
2017-Apr-17 09:20N 40°38' W 074°08'0 0.0
2017-Apr-17 08:56N 40°38' W 074°08'0 0.0
2017-Apr-17 08:23N 40°38' W 074°08'0 0.0
2017-Apr-17 07:56N 40°38' W 074°08'0 0.0
2017-Apr-17 07:29N 40°38' W 074°08'0 0.0
2017-Apr-17 06:59N 40°38' W 074°08'0 0.0
2017-Apr-17 06:29N 40°38' W 074°08'0 0.0
2017-Apr-17 05:59N 40°38' W 074°08'0 0.0
2017-Apr-17 05:29N 40°38' W 074°08'0 0.0
2017-Apr-17 04:59N 40°38' W 074°08'0 0.0
2017-Apr-17 04:29N 40°38' W 074°08'0 0.0
2017-Apr-17 03:59N 40°38' W 074°08'0 0.0
2017-Apr-17 03:29N 40°38' W 074°08'0 0.0
2017-Apr-17 02:59N 40°38' W 074°08'0 0.0
2017-Apr-17 02:26N 40°38' W 074°08'0 0.0
2017-Apr-17 01:56N 40°38' W 074°08'0 0.0
2017-Apr-17 01:29N 40°38' W 074°08'0 0.0
2017-Apr-17 00:59N 40°38' W 074°08'0 0.0
2017-Apr-17 00:29N 40°38' W 074°08'0 0.0
2017-Apr-16 23:59N 40°38' W 074°08'0 0.0
2017-Apr-16 23:26N 40°38' W 074°08'0 0.0
2017-Apr-16 22:56N 40°38' W 074°08'0 0.0
2017-Apr-16 22:29N 40°38' W 074°08'0 0.0
2017-Apr-16 21:53N 40°38' W 074°08'0 0.0
2017-Apr-16 21:29N 40°38' W 074°08'0 0.0
2017-Apr-16 20:44N 40°38' W 074°08'0 0.0
2017-Apr-16 20:29N 40°38' W 074°08'0 0.0
2017-Apr-16 19:56N 40°38' W 074°08'0 0.0
2017-Apr-16 19:29N 40°38' W 074°08'0 0.0
2017-Apr-16 18:53N 40°38' W 074°08'0 0.0
2017-Apr-16 18:29N 40°38' W 074°08'0 0.0
2017-Apr-16 17:59N 40°38' W 074°08'0 0.0
2017-Apr-16 17:29N 40°38' W 074°08'0 0.0
2017-Apr-16 16:59N 40°38' W 074°08'0 0.0
2017-Apr-16 16:29N 40°38' W 074°08'0 0.0
2017-Apr-16 15:59N 40°38' W 074°08'0 0.0
2017-Apr-16 15:26N 40°38' W 074°08'0 0.0
2017-Apr-16 14:59N 40°38' W 074°08'0 0.0
2017-Apr-16 13:59N 40°38' W 074°08'0 0.0
2017-Apr-16 13:29N 40°38' W 074°08'0 0.0
2017-Apr-16 12:59N 40°38' W 074°08'0 0.0
2017-Apr-16 12:26N 40°38' W 074°08'0 0.0
2017-Apr-16 11:56N 40°38' W 074°08'0 0.0
2017-Apr-16 11:26N 40°38' W 074°08'0 0.0
2017-Apr-16 10:59N 40°38' W 074°08'0 0.0
2017-Apr-16 10:29N 40°38' W 074°08'0 0.0
2017-Apr-16 09:59N 40°38' W 074°08'0 0.0
2017-Apr-16 09:23N 40°38' W 074°08'0 0.0
2017-Apr-16 08:59N 40°38' W 074°08'0 0.0
2017-Apr-16 08:29N 40°38' W 074°08'0 0.0
2017-Apr-16 07:59N 40°38' W 074°08'0 0.0
2017-Apr-16 07:29N 40°38' W 074°08'0 0.0
2017-Apr-16 06:59N 40°38' W 074°08'0 0.0
2017-Apr-16 06:30N 40°38' W 074°08'0 0.0
2017-Apr-16 06:00N 40°38' W 074°08'0 0.0
2017-Apr-16 05:30N 40°38' W 074°08'0 0.0
2017-Apr-16 05:00N 40°38' W 074°08'0 0.0
2017-Apr-16 04:30N 40°38' W 074°08'0 0.0
2017-Apr-16 04:00N 40°38' W 074°08'0 0.0
2017-Apr-16 03:30N 40°38' W 074°08'0 0.0
2017-Apr-16 03:00N 40°38' W 074°08'0 0.0
2017-Apr-16 02:30N 40°38' W 074°08'0 0.0
2017-Apr-16 02:00N 40°38' W 074°08'0 0.0
2017-Apr-16 01:30N 40°38' W 074°08'0 0.0
2017-Apr-16 01:00N 40°38' W 074°08'0 0.0
2017-Apr-16 00:30N 40°38' W 074°08'0 0.0
2017-Apr-16 00:00N 40°38' W 074°08'0 0.0
2017-Apr-15 23:30N 40°38' W 074°08'0 0.0
2017-Apr-15 23:00N 40°38' W 074°08'0 0.0
2017-Apr-15 22:30N 40°38' W 074°08'0 0.0
2017-Apr-15 21:57N 40°38' W 074°08'0 0.0
2017-Apr-15 21:30N 40°38' W 074°08'0 0.0
2017-Apr-15 21:00N 40°38' W 074°08'0 0.0
2017-Apr-15 20:30N 40°38' W 074°08'0 0.0
2017-Apr-15 20:00N 40°38' W 074°08'0 0.0
2017-Apr-15 19:30N 40°38' W 074°08'0 0.0
2017-Apr-15 19:00N 40°38' W 074°08'0 0.0
2017-Apr-15 18:30N 40°38' W 074°08'0 0.0
2017-Apr-15 18:00N 40°38' W 074°08'0 0.0
2017-Apr-15 17:30N 40°38' W 074°08'0 0.0
2017-Apr-15 16:58N 40°38' W 074°08'0 0.0
2017-Apr-15 16:30N 40°38' W 074°08'0 0.0
2017-Apr-15 16:00N 40°38' W 074°08'0 0.0
2017-Apr-15 15:30N 40°38' W 074°08'0 0.0
2017-Apr-15 15:00N 40°38' W 074°08'0 0.0
2017-Apr-15 14:30N 40°38' W 074°08'0 0.1
2017-Apr-15 13:30N 40°39' W 074°08'0 0.1
2017-Apr-15 13:00N 40°39' W 074°08'4 8.6
2017-Apr-15 12:30N 40°36' W 074°12'4 2.1
2017-Apr-15 10:35N 40°32' W 074°15'0 0.3
2017-Apr-15 10:30N 40°33' W 074°15'0 0.1
2017-Apr-15 09:29N 40°33' W 074°15'4 7.5
2017-Apr-15 08:55N 40°36' W 074°12'3 7.9
2017-Apr-15 08:30N 40°39' W 074°10'2 3.0
2017-Apr-15 08:00N 40°38' W 074°08'0 0.0
2017-Apr-15 07:30N 40°38' W 074°08'0 0.0
2017-Apr-15 07:00N 40°38' W 074°08'0 0.0
2017-Apr-15 06:30N 40°38' W 074°08'0 0.0
2017-Apr-15 06:00N 40°38' W 074°08'0 0.0
2017-Apr-15 05:30N 40°38' W 074°08'0 0.0
2017-Apr-15 05:00N 40°38' W 074°08'0 0.0
2017-Apr-15 04:30N 40°38' W 074°08'0 0.0
2017-Apr-15 04:00N 40°38' W 074°08'0 0.0
2017-Apr-15 03:30N 40°38' W 074°08'0 0.0
2017-Apr-15 03:00N 40°38' W 074°08'0 0.0
2017-Apr-15 02:30N 40°38' W 074°08'0 0.0
2017-Apr-15 01:57N 40°38' W 074°08'0 0.0
2017-Apr-15 01:30N 40°38' W 074°08'0 0.0
2017-Apr-15 01:00N 40°38' W 074°08'0 0.0
2017-Apr-15 00:30N 40°38' W 074°08'0 0.0
2017-Apr-14 23:57N 40°38' W 074°08'0 0.0
2017-Apr-14 23:30N 40°38' W 074°08'0 0.0
2017-Apr-14 22:57N 40°38' W 074°08'0 0.0
2017-Apr-14 22:30N 40°38' W 074°08'0 0.0
2017-Apr-14 21:57N 40°38' W 074°08'2 4.6
2017-Apr-14 21:30N 40°39' W 074°05'0 0.0
2017-Apr-14 21:00N 40°39' W 074°05'1 1.6
2017-Apr-14 20:30N 40°39' W 074°04'1 1.9
2017-Apr-14 20:00N 40°38' W 074°04'3 6.2
2017-Apr-14 19:30N 40°38' W 074°08'0 0.0
2017-Apr-14 19:00N 40°38' W 074°08'0 0.0
2017-Apr-14 18:30N 40°38' W 074°08'0 0.0
2017-Apr-14 18:00N 40°38' W 074°08'1 2.5
2017-Apr-14 17:30N 40°39' W 074°09'3 5.5
2017-Apr-14 17:00N 40°37' W 074°12'4 7.1
2017-Apr-14 16:29N 40°38' W 074°08'0 0.0
2017-Apr-14 15:59N 40°38' W 074°08'0 0.0
2017-Apr-14 15:29N 40°38' W 074°08'0 0.0
2017-Apr-14 14:59N 40°38' W 074°08'0 0.0
2017-Apr-14 14:11N 40°38' W 074°08'0 0.0
2017-Apr-14 13:29N 40°38' W 074°08'0 0.0
2017-Apr-14 12:59N 40°38' W 074°08'0 0.0
2017-Apr-14 12:23N 40°38' W 074°08'0 0.0
2017-Apr-14 11:53N 40°38' W 074°08'0 0.0
2017-Apr-14 11:26N 40°38' W 074°08'0 0.0
2017-Apr-14 10:59N 40°38' W 074°08'1 2.5
2017-Apr-14 10:30N 40°39' W 074°09'0 0.2
2017-Apr-14 10:00N 40°40' W 074°09'2 3.4
2017-Apr-14 09:30N 40°39' W 074°07'2 4.9
2017-Apr-14 09:00N 40°38' W 074°03'0 0.7
2017-Apr-14 08:30N 40°38' W 074°03'2 3.7
2017-Apr-14 08:00N 40°39' W 074°05'2 3.0
2017-Apr-14 07:22N 40°38' W 074°08'0 0.0
2017-Apr-14 06:58N 40°38' W 074°08'0 0.0
2017-Apr-14 06:22N 40°38' W 074°08'0 0.0
2017-Apr-14 05:58N 40°38' W 074°08'0 0.0
2017-Apr-14 05:28N 40°38' W 074°08'0 0.0
2017-Apr-14 04:58N 40°38' W 074°08'0 0.0
2017-Apr-14 04:28N 40°38' W 074°08'0 0.0
2017-Apr-14 03:58N 40°38' W 074°08'0 0.0
2017-Apr-14 03:25N 40°38' W 074°08'0 0.0
2017-Apr-14 02:55N 40°38' W 074°08'0 0.0
2017-Apr-14 02:25N 40°38' W 074°08'0 0.0
2017-Apr-14 01:55N 40°38' W 074°08'0 0.0
2017-Apr-14 01:28N 40°38' W 074°08'0 0.0
2017-Apr-14 00:49N 40°38' W 074°08'0 0.0
2017-Apr-14 00:28N 40°38' W 074°08'0 0.0
2017-Apr-13 23:55N 40°38' W 074°08'0 0.0
2017-Apr-13 23:25N 40°38' W 074°08'0 0.0
2017-Apr-13 22:22N 40°38' W 074°08'0 0.0
2017-Apr-13 21:58N 40°38' W 074°08'0 0.0
2017-Apr-13 21:28N 40°38' W 074°08'0 0.0
2017-Apr-13 20:58N 40°38' W 074°08'0 0.0
2017-Apr-13 20:22N 40°38' W 074°08'0 0.0
2017-Apr-13 19:58N 40°38' W 074°08'0 0.0
2017-Apr-13 19:26N 40°38' W 074°08'2 5.1
2017-Apr-13 19:01N 40°39' W 074°05'3 6.8
2017-Apr-13 18:31N 40°36' W 074°03'3 6.6
2017-Apr-13 18:00N 40°39' W 074°05'2 4.1
2017-Apr-13 17:26N 40°38' W 074°08'0 0.0
2017-Apr-13 16:59N 40°38' W 074°08'0 0.0
2017-Apr-13 16:26N 40°38' W 074°08'0 0.0
2017-Apr-13 15:59N 40°38' W 074°08'0 0.8
2017-Apr-13 15:30N 40°39' W 074°08'2 3.0
2017-Apr-13 15:00N 40°40' W 074°08'3 3.0
2017-Apr-13 14:01N 40°39' W 074°05'3 5.8
2017-Apr-13 13:31N 40°36' W 074°03'2 3.2
2017-Apr-13 13:00N 40°38' W 074°03'2 4.0
2017-Apr-13 12:30N 40°39' W 074°06'0 0.0
2017-Apr-13 12:01N 40°39' W 074°06'4 8.6
2017-Apr-13 11:30N 40°38' W 074°11'0 0.0
2017-Apr-13 11:00N 40°38' W 074°11'0 0.4
2017-Apr-13 10:30N 40°39' W 074°11'3 6.9
2017-Apr-13 10:00N 40°39' W 074°07'1 1.7
2017-Apr-13 09:30N 40°38' W 074°08'0 0.0
2017-Apr-13 09:00N 40°38' W 074°08'0 0.0
2017-Apr-13 08:30N 40°38' W 074°08'0 0.0
2017-Apr-13 07:57N 40°38' W 074°08'0 0.0
2017-Apr-13 07:30N 40°38' W 074°08'0 0.0
2017-Apr-13 07:00N 40°38' W 074°08'0 0.0
2017-Apr-13 06:30N 40°38' W 074°08'0 0.0
2017-Apr-13 06:00N 40°38' W 074°08'0 0.0
2017-Apr-13 05:30N 40°38' W 074°08'0 0.0
2017-Apr-13 05:00N 40°38' W 074°08'0 0.0
2017-Apr-13 04:30N 40°38' W 074°08'0 0.0
2017-Apr-13 04:00N 40°38' W 074°08'0 0.0
2017-Apr-13 03:30N 40°38' W 074°08'0 0.0
2017-Apr-13 03:00N 40°38' W 074°08'0 0.0
2017-Apr-13 02:30N 40°38' W 074°08'0 0.0
2017-Apr-13 02:00N 40°38' W 074°08'0 0.0
2017-Apr-13 01:30N 40°38' W 074°08'0 0.0
2017-Apr-13 01:00N 40°38' W 074°08'0 0.0
2017-Apr-13 00:30N 40°38' W 074°08'0 0.0
2017-Apr-13 00:00N 40°38' W 074°08'0 0.0
2017-Apr-12 23:30N 40°38' W 074°08'0 0.0
2017-Apr-12 23:00N 40°38' W 074°08'0 0.0
2017-Apr-12 22:30N 40°38' W 074°08'1 2.1
2017-Apr-12 22:00N 40°39' W 074°09'3 5.2
2017-Apr-12 21:30N 40°42' W 074°09'2 4.5
2017-Apr-12 21:00N 40°40' W 074°08'2 3.2
2017-Apr-12 20:31N 40°39' W 074°07'3 6.2
2017-Apr-12 20:00N 40°40' W 074°03'2 4.7
2017-Apr-12 19:31N 40°41' W 074°00'3 5.4
2017-Apr-12 19:00N 40°40' W 074°03'4 7.6
2017-Apr-12 18:30N 40°38' W 074°08'0 0.0
2017-Apr-12 17:58N 40°38' W 074°08'0 0.0
2017-Apr-12 17:25N 40°38' W 074°08'0 0.0
2017-Apr-12 16:52N 40°38' W 074°08'0 0.0
2017-Apr-12 16:28N 40°38' W 074°08'0 0.0
2017-Apr-12 15:55N 40°38' W 074°08'0 0.0
2017-Apr-12 15:28N 40°38' W 074°08'0 0.0
2017-Apr-12 14:58N 40°38' W 074°08'0 0.0
2017-Apr-12 14:28N 40°38' W 074°08'0 0.0
2017-Apr-12 13:28N 40°38' W 074°08'0 0.0
2017-Apr-12 12:58N 40°38' W 074°08'0 0.0
2017-Apr-12 12:28N 40°38' W 074°08'0 0.0
2017-Apr-12 11:58N 40°38' W 074°08'0 0.0
2017-Apr-12 11:28N 40°38' W 074°08'0 0.0
2017-Apr-12 10:58N 40°38' W 074°08'0 0.0
2017-Apr-12 10:25N 40°38' W 074°08'0 0.0
2017-Apr-12 09:58N 40°38' W 074°08'0 0.0
2017-Apr-12 09:28N 40°38' W 074°08'0 0.0
2017-Apr-12 08:58N 40°38' W 074°08'0 0.0
2017-Apr-12 08:28N 40°38' W 074°08'0 0.0
2017-Apr-12 07:58N 40°38' W 074°08'0 0.0
2017-Apr-12 07:28N 40°38' W 074°08'0 0.0
2017-Apr-12 06:58N 40°38' W 074°08'0 0.0
2017-Apr-12 06:13N 40°38' W 074°08'0 0.0
2017-Apr-12 05:52N 40°38' W 074°08'0 0.0
2017-Apr-12 05:28N 40°38' W 074°08'0 0.0
2017-Apr-12 04:55N 40°38' W 074°08'0 0.0
2017-Apr-12 04:28N 40°38' W 074°08'0 0.0
2017-Apr-12 03:58N 40°38' W 074°08'0 0.0
2017-Apr-12 03:28N 40°38' W 074°08'0 0.0
2017-Apr-12 02:55N 40°38' W 074°08'0 0.0
2017-Apr-12 02:28N 40°38' W 074°08'0 0.0
2017-Apr-12 01:58N 40°38' W 074°08'0 0.1
2017-Apr-12 01:31N 40°39' W 074°08'510.0
2017-Apr-12 01:00N 40°41' W 074°02'1 2.7
2017-Apr-12 00:30N 40°41' W 074°00'3 5.6
2017-Apr-12 00:00N 40°40' W 074°03'4 7.3
2017-Apr-11 23:30N 40°39' W 074°08'3 5.2
2017-Apr-11 23:00N 40°41' W 074°08'1 2.0
2017-Apr-11 22:30N 40°42' W 074°09'0 0.1
2017-Apr-11 22:00N 40°42' W 074°09'3 5.4
2017-Apr-11 21:30N 40°39' W 074°09'4 7.2
2017-Apr-11 21:01N 40°40' W 074°04'0 0.2
2017-Apr-11 20:30N 40°40' W 074°04'0 0.0
2017-Apr-11 20:00N 40°40' W 074°04'0 0.0
2017-Apr-11 19:30N 40°40' W 074°04'0 0.0
2017-Apr-11 19:00N 40°40' W 074°04'0 0.0
2017-Apr-11 18:30N 40°40' W 074°04'0 0.0
2017-Apr-11 18:00N 40°40' W 074°04'0 0.0
2017-Apr-11 17:30N 40°40' W 074°04'0 0.0
2017-Apr-11 17:00N 40°40' W 074°04'0 0.0
2017-Apr-11 16:30N 40°40' W 074°04'0 0.0
2017-Apr-11 16:00N 40°40' W 074°04'0 0.0
2017-Apr-11 15:30N 40°40' W 074°04'0 0.0
2017-Apr-11 15:00N 40°40' W 074°04'0 0.0
2017-Apr-11 14:30N 40°40' W 074°04'0 0.0
2017-Apr-11 13:30N 40°40' W 074°04'0 0.0
2017-Apr-11 13:00N 40°40' W 074°04'0 0.4
2017-Apr-11 12:29N 40°40' W 074°04'0 0.0
2017-Apr-11 11:59N 40°40' W 074°04'0 0.0
2017-Apr-11 11:29N 40°40' W 074°04'0 0.0
2017-Apr-11 10:59N 40°40' W 074°04'0 0.0
2017-Apr-11 10:29N 40°40' W 074°04'0 0.0
2017-Apr-11 09:56N 40°40' W 074°04'0 0.0
2017-Apr-11 09:29N 40°40' W 074°04'0 0.0
2017-Apr-11 08:58N 40°40' W 074°04'0 0.0
2017-Apr-11 08:29N 40°40' W 074°04'0 0.0
2017-Apr-11 07:59N 40°40' W 074°04'0 0.0
2017-Apr-11 07:29N 40°40' W 074°04'0 0.0
2017-Apr-11 06:59N 40°40' W 074°04'0 0.0
2017-Apr-11 06:29N 40°40' W 074°04'0 0.0
2017-Apr-11 05:59N 40°40' W 074°04'0 0.0
2017-Apr-11 05:29N 40°40' W 074°04'0 0.0
2017-Apr-11 04:59N 40°40' W 074°04'1 1.1
2017-Apr-11 04:30N 40°40' W 074°04'3 5.3
2017-Apr-11 04:00N 40°41' W 074°01'0 0.0
2017-Apr-11 03:30N 40°41' W 074°01'0 0.0
2017-Apr-11 03:00N 40°41' W 074°01'0 0.0
2017-Apr-11 02:30N 40°41' W 074°01'0 0.0
2017-Apr-11 02:00N 40°41' W 074°01'0 0.0
2017-Apr-11 01:30N 40°41' W 074°01'0 0.1
2017-Apr-11 01:00N 40°41' W 074°01'1 1.8
2017-Apr-11 00:30N 40°41' W 074°02'1 1.9
2017-Apr-11 00:00N 40°41' W 074°01'0 0.2
2017-Apr-10 23:28N 40°41' W 074°01'0 0.0
2017-Apr-10 23:01N 40°41' W 074°01'0 0.0
2017-Apr-10 22:28N 40°41' W 074°01'0 0.9
2017-Apr-10 22:01N 40°41' W 074°00'0 0.2
2017-Apr-10 21:30N 40°41' W 074°00'4 8.1
2017-Apr-10 21:00N 40°39' W 074°05'3 6.0
2017-Apr-10 20:30N 40°39' W 074°09'2 4.9
2017-Apr-10 20:01N 40°42' W 074°09'2 4.6
2017-Apr-10 19:30N 40°40' W 074°09'1 2.4
2017-Apr-10 18:59N 40°38' W 074°08'0 0.0
2017-Apr-10 18:29N 40°38' W 074°08'0 0.0
2017-Apr-10 17:59N 40°38' W 074°08'0 0.0
2017-Apr-10 17:26N 40°38' W 074°08'0 0.0
2017-Apr-10 16:59N 40°38' W 074°08'0 0.0
2017-Apr-10 16:29N 40°38' W 074°08'0 0.0
2017-Apr-10 16:00N 40°38' W 074°08'0 0.0
2017-Apr-10 15:30N 40°38' W 074°08'0 0.0
2017-Apr-10 15:00N 40°38' W 074°08'0 0.0
2017-Apr-10 14:30N 40°38' W 074°08'3 3.3
2017-Apr-10 13:30N 40°38' W 074°12'1 1.3
2017-Apr-10 13:00N 40°38' W 074°12'3 5.4
2017-Apr-10 12:30N 40°39' W 074°08'3 5.5
2017-Apr-10 12:00N 40°39' W 074°05'2 4.1
2017-Apr-10 11:30N 40°37' W 074°03'2 4.7
2017-Apr-10 11:00N 40°39' W 074°06'2 3.1
2017-Apr-10 10:28N 40°38' W 074°08'0 0.0
2017-Apr-10 09:57N 40°38' W 074°08'0 0.0
2017-Apr-10 09:30N 40°38' W 074°08'0 0.0
2017-Apr-10 09:00N 40°38' W 074°08'0 0.0
2017-Apr-10 08:30N 40°38' W 074°08'0 0.0
2017-Apr-10 07:57N 40°38' W 074°08'0 0.0
2017-Apr-10 07:30N 40°38' W 074°08'0 0.0
2017-Apr-10 07:00N 40°38' W 074°08'0 0.0
2017-Apr-10 06:30N 40°38' W 074°08'0 0.0
2017-Apr-10 06:00N 40°38' W 074°08'0 0.0
2017-Apr-10 05:30N 40°38' W 074°08'0 0.0
2017-Apr-10 05:00N 40°38' W 074°08'0 0.0
2017-Apr-10 04:30N 40°38' W 074°08'0 0.0
2017-Apr-10 04:00N 40°38' W 074°08'1 2.9
2017-Apr-10 03:31N 40°39' W 074°10'5 9.3
2017-Apr-10 03:00N 40°35' W 074°13'3 5.3
2017-Apr-10 02:24N 40°32' W 074°15'0 0.0
2017-Apr-10 01:56N 40°32' W 074°15'0 0.0
2017-Apr-10 01:30N 40°32' W 074°15'0 0.2
2017-Apr-10 01:00N 40°32' W 074°15'4 4.5
2017-Apr-10 00:10N 40°35' W 074°12'1 4.9
2017-Apr-09 23:59N 40°36' W 074°12'3 5.1
2017-Apr-09 23:30N 40°39' W 074°11'3 5.6
2017-Apr-09 23:00N 40°39' W 074°08'0 0.3
2017-Apr-09 22:29N 40°38' W 074°08'0 0.0
2017-Apr-09 21:59N 40°38' W 074°08'0 0.0
2017-Apr-09 21:29N 40°38' W 074°08'0 0.0
2017-Apr-09 20:59N 40°38' W 074°08'0 0.0
2017-Apr-09 20:23N 40°38' W 074°08'0 0.0
2017-Apr-09 19:59N 40°38' W 074°08'0 0.0
2017-Apr-09 19:26N 40°38' W 074°08'0 0.0
2017-Apr-09 18:59N 40°38' W 074°08'0 0.0
2017-Apr-09 18:23N 40°38' W 074°08'0 0.0
2017-Apr-09 17:53N 40°38' W 074°08'0 0.0
2017-Apr-09 17:29N 40°38' W 074°08'0 0.0
2017-Apr-09 16:59N 40°38' W 074°08'0 0.0
2017-Apr-09 16:29N 40°38' W 074°08'0 0.0
2017-Apr-09 15:59N 40°38' W 074°08'0 0.0
2017-Apr-09 15:29N 40°38' W 074°08'0 0.0
2017-Apr-09 14:59N 40°38' W 074°08'  
Track history (hours):
 
Tides and Currents Weather Stations Pressure Air Temp Water Temp Dewpoint Dewpoint Depression Visibility Wind Speed Wind Dir Waves Ship Positions

Doris Moran

Owner: MORAN TOWING CORPORATION, New Canaan, CT. More information available from US FCC via Universal Licensing System and Coast Guard Vessel Documentation Center.

Last reported at 2017-Apr-19 14:16 UTC. Time now 2017-May-28 12:33 UTC.
Position N 40°38' W 074°08'.
Warning: this ship's position is 38 days out of date.

Length 36 m; draft 5.3 m.

Type: Tug. MMSI: 366939790.

Date/timePositionNaut miles runAvg speedWind from/ knotsBaromVisibWave heightAir tempDewpointWater temp
2017-Apr-19 14:16N 40°38' W 074°08'0 0.0
2017-Apr-19 13:25N 40°38' W 074°08'0 0.0
2017-Apr-19 12:58N 40°38' W 074°08'0 0.0
2017-Apr-19 12:28N 40°38' W 074°08'0 0.0
2017-Apr-19 11:58N 40°38' W 074°08'0 0.1
2017-Apr-19 11:28N 40°38' W 074°08'0 0.0
2017-Apr-19 10:58N 40°38' W 074°08'0 0.0
2017-Apr-19 10:28N 40°38' W 074°08'0 0.0
2017-Apr-19 09:58N 40°38' W 074°08'0 0.0
2017-Apr-19 09:28N 40°38' W 074°08'0 0.0
2017-Apr-19 08:58N 40°38' W 074°08'0 0.0
2017-Apr-19 08:28N 40°38' W 074°08'0 0.0
2017-Apr-19 07:58N 40°38' W 074°08'0 0.0
2017-Apr-19 07:28N 40°38' W 074°08'0 0.0
2017-Apr-19 06:58N 40°38' W 074°08'0 0.0
2017-Apr-19 06:28N 40°38' W 074°08'0 0.0
2017-Apr-19 05:58N 40°38' W 074°08'0 0.0
2017-Apr-19 05:28N 40°38' W 074°08'0 0.0
2017-Apr-19 04:58N 40°38' W 074°08'0 0.0
2017-Apr-19 04:28N 40°38' W 074°08'0 0.0
2017-Apr-19 03:58N 40°38' W 074°08'0 0.0
2017-Apr-19 03:28N 40°38' W 074°08'0 0.0
2017-Apr-19 02:58N 40°38' W 074°08'0 0.0
2017-Apr-19 02:28N 40°38' W 074°08'0 0.0
2017-Apr-19 01:58N 40°38' W 074°08'0 0.0
2017-Apr-19 01:28N 40°38' W 074°08'0 0.1
2017-Apr-19 01:00N 40°39' W 074°08'510.3
2017-Apr-19 00:30N 40°41' W 074°02'1 2.0
2017-Apr-19 00:00N 40°41' W 074°01'4 8.2
2017-Apr-18 23:30N 40°39' W 074°05'3 5.9
2017-Apr-18 23:00N 40°39' W 074°09'3 5.5
2017-Apr-18 22:30N 40°42' W 074°08'1 1.2
2017-Apr-18 22:01N 40°42' W 074°09'0 0.1
2017-Apr-18 21:30N 40°42' W 074°09'2 4.1
2017-Apr-18 21:00N 40°40' W 074°09'1 2.8
2017-Apr-18 20:29N 40°38' W 074°08'0 0.0
2017-Apr-18 19:59N 40°38' W 074°08'0 0.0
2017-Apr-18 19:29N 40°38' W 074°08'0 0.0
2017-Apr-18 18:59N 40°38' W 074°08'0 0.0
2017-Apr-18 18:29N 40°38' W 074°08'0 0.0
2017-Apr-18 17:59N 40°38' W 074°08'0 0.0
2017-Apr-18 17:29N 40°38' W 074°08'0 0.0
2017-Apr-18 16:59N 40°38' W 074°08'0 0.0
2017-Apr-18 16:29N 40°38' W 074°08'0 0.0
2017-Apr-18 15:59N 40°38' W 074°08'0 0.0
2017-Apr-18 15:29N 40°38' W 074°08'0 0.0
2017-Apr-18 14:59N 40°38' W 074°08'0 0.0
2017-Apr-18 13:59N 40°38' W 074°08'0 0.0
2017-Apr-18 13:29N 40°38' W 074°08'0 0.0
2017-Apr-18 12:59N 40°38' W 074°08'0 0.0
2017-Apr-18 12:29N 40°38' W 074°08'0 0.0
2017-Apr-18 11:59N 40°38' W 074°08'0 0.0
2017-Apr-18 11:29N 40°38' W 074°08'0 0.0
2017-Apr-18 10:59N 40°38' W 074°08'0 0.0
2017-Apr-18 10:29N 40°38' W 074°08'0 0.0
2017-Apr-18 09:59N 40°38' W 074°08'0 0.0
2017-Apr-18 09:29N 40°38' W 074°08'0 0.0
2017-Apr-18 09:00N 40°38' W 074°08'2 3.6
2017-Apr-18 08:30N 40°39' W 074°05'1 2.4
2017-Apr-18 08:00N 40°39' W 074°04'3 5.4
2017-Apr-18 07:28N 40°38' W 074°08'0 0.0
2017-Apr-18 06:58N 40°38' W 074°08'0 0.0
2017-Apr-18 06:28N 40°38' W 074°08'0 0.0
2017-Apr-18 05:58N 40°38' W 074°08'0 0.0
2017-Apr-18 05:28N 40°38' W 074°08'0 0.0
2017-Apr-18 05:00N 40°38' W 074°08'0 0.0
2017-Apr-18 04:30N 40°38' W 074°08'0 0.0
2017-Apr-18 04:00N 40°38' W 074°08'0 0.0
2017-Apr-18 03:30N 40°38' W 074°08'0 0.0
2017-Apr-18 03:00N 40°39' W 074°08'0 0.0
2017-Apr-18 02:30N 40°39' W 074°08'0 0.0
2017-Apr-18 02:00N 40°38' W 074°08'0 0.0
2017-Apr-18 01:30N 40°39' W 074°08'0 0.0
2017-Apr-18 01:00N 40°39' W 074°08'0 0.0
2017-Apr-18 00:30N 40°38' W 074°08'0 0.0
2017-Apr-18 00:00N 40°38' W 074°08'0 0.0
2017-Apr-17 23:30N 40°38' W 074°08'0 0.0
2017-Apr-17 23:00N 40°38' W 074°08'0 0.0
2017-Apr-17 22:30N 40°38' W 074°08'0 0.0
2017-Apr-17 22:00N 40°38' W 074°08'0 0.0
2017-Apr-17 21:30N 40°39' W 074°08'0 0.0
2017-Apr-17 21:00N 40°38' W 074°08'0 0.0
2017-Apr-17 20:30N 40°38' W 074°08'0 0.7
2017-Apr-17 20:00N 40°39' W 074°08'3 6.6
2017-Apr-17 19:30N 40°42' W 074°09'0 0.1
2017-Apr-17 19:00N 40°42' W 074°09'2 3.7
2017-Apr-17 18:30N 40°40' W 074°08'2 3.4
2017-Apr-17 18:00N 40°38' W 074°08'0 0.0
2017-Apr-17 17:27N 40°38' W 074°08'0 0.0
2017-Apr-17 17:01N 40°38' W 074°08'4 8.2
2017-Apr-17 16:30N 40°40' W 074°03'4 8.7
2017-Apr-17 16:00N 40°43' W 073°58'3 5.7
2017-Apr-17 15:30N 40°46' W 073°57'0 0.0
2017-Apr-17 15:00N 40°46' W 073°57'0 0.0
2017-Apr-17 14:00N 40°46' W 073°57'0 0.0
2017-Apr-17 13:27N 40°46' W 073°57'0 1.0
2017-Apr-17 13:00N 40°45' W 073°57'611.5
2017-Apr-17 12:30N 40°41' W 074°02'5 8.7
2017-Apr-17 11:56N 40°38' W 074°08'0 0.0
2017-Apr-17 11:29N 40°38' W 074°08'2 4.4
2017-Apr-17 11:01N 40°39' W 074°05'2 3.0
2017-Apr-17 10:30N 40°39' W 074°07'1 1.1
2017-Apr-17 09:59N 40°38' W 074°08'0 0.0
2017-Apr-17 09:20N 40°38' W 074°08'0 0.0
2017-Apr-17 08:56N 40°38' W 074°08'0 0.0
2017-Apr-17 08:23N 40°38' W 074°08'0 0.0
2017-Apr-17 07:56N 40°38' W 074°08'0 0.0
2017-Apr-17 07:29N 40°38' W 074°08'0 0.0
2017-Apr-17 06:59N 40°38' W 074°08'0 0.0
2017-Apr-17 06:29N 40°38' W 074°08'0 0.0
2017-Apr-17 05:59N 40°38' W 074°08'0 0.0
2017-Apr-17 05:29N 40°38' W 074°08'0 0.0
2017-Apr-17 04:59N 40°38' W 074°08'0 0.0
2017-Apr-17 04:29N 40°38' W 074°08'0 0.0
2017-Apr-17 03:59N 40°38' W 074°08'0 0.0
2017-Apr-17 03:29N 40°38' W 074°08'0 0.0
2017-Apr-17 02:59N 40°38' W 074°08'0 0.0
2017-Apr-17 02:26N 40°38' W 074°08'0 0.0
2017-Apr-17 01:56N 40°38' W 074°08'0 0.0
2017-Apr-17 01:29N 40°38' W 074°08'0 0.0
2017-Apr-17 00:59N 40°38' W 074°08'0 0.0
2017-Apr-17 00:29N 40°38' W 074°08'0 0.0
2017-Apr-16 23:59N 40°38' W 074°08'0 0.0
2017-Apr-16 23:26N 40°38' W 074°08'0 0.0
2017-Apr-16 22:56N 40°38' W 074°08'0 0.0
2017-Apr-16 22:29N 40°38' W 074°08'0 0.0
2017-Apr-16 21:53N 40°38' W 074°08'0 0.0
2017-Apr-16 21:29N 40°38' W 074°08'0 0.0
2017-Apr-16 20:44N 40°38' W 074°08'0 0.0
2017-Apr-16 20:29N 40°38' W 074°08'0 0.0
2017-Apr-16 19:56N 40°38' W 074°08'0 0.0
2017-Apr-16 19:29N 40°38' W 074°08'0 0.0
2017-Apr-16 18:53N 40°38' W 074°08'0 0.0
2017-Apr-16 18:29N 40°38' W 074°08'0 0.0
2017-Apr-16 17:59N 40°38' W 074°08'0 0.0
2017-Apr-16 17:29N 40°38' W 074°08'0 0.0
2017-Apr-16 16:59N 40°38' W 074°08'0 0.0
2017-Apr-16 16:29N 40°38' W 074°08'0 0.0
2017-Apr-16 15:59N 40°38' W 074°08'0 0.0
2017-Apr-16 15:26N 40°38' W 074°08'0 0.0
2017-Apr-16 14:59N 40°38' W 074°08'0 0.0
2017-Apr-16 13:59N 40°38' W 074°08'0 0.0
2017-Apr-16 13:29N 40°38' W 074°08'0 0.0
2017-Apr-16 12:59N 40°38' W 074°08'0 0.0
2017-Apr-16 12:26N 40°38' W 074°08'0 0.0
2017-Apr-16 11:56N 40°38' W 074°08'0 0.0
2017-Apr-16 11:26N 40°38' W 074°08'0 0.0
2017-Apr-16 10:59N 40°38' W 074°08'0 0.0
2017-Apr-16 10:29N 40°38' W 074°08'0 0.0
2017-Apr-16 09:59N 40°38' W 074°08'0 0.0
2017-Apr-16 09:23N 40°38' W 074°08'0 0.0
2017-Apr-16 08:59N 40°38' W 074°08'0 0.0
2017-Apr-16 08:29N 40°38' W 074°08'0 0.0
2017-Apr-16 07:59N 40°38' W 074°08'0 0.0
2017-Apr-16 07:29N 40°38' W 074°08'0 0.0
2017-Apr-16 06:59N 40°38' W 074°08'0 0.0
2017-Apr-16 06:30N 40°38' W 074°08'0 0.0
2017-Apr-16 06:00N 40°38' W 074°08'0 0.0
2017-Apr-16 05:30N 40°38' W 074°08'0 0.0
2017-Apr-16 05:00N 40°38' W 074°08'0 0.0
2017-Apr-16 04:30N 40°38' W 074°08'0 0.0
2017-Apr-16 04:00N 40°38' W 074°08'0 0.0
2017-Apr-16 03:30N 40°38' W 074°08'0 0.0
2017-Apr-16 03:00N 40°38' W 074°08'0 0.0
2017-Apr-16 02:30N 40°38' W 074°08'0 0.0
2017-Apr-16 02:00N 40°38' W 074°08'0 0.0
2017-Apr-16 01:30N 40°38' W 074°08'0 0.0
2017-Apr-16 01:00N 40°38' W 074°08'0 0.0
2017-Apr-16 00:30N 40°38' W 074°08'0 0.0
2017-Apr-16 00:00N 40°38' W 074°08'0 0.0
2017-Apr-15 23:30N 40°38' W 074°08'0 0.0
2017-Apr-15 23:00N 40°38' W 074°08'0 0.0
2017-Apr-15 22:30N 40°38' W 074°08'0 0.0
2017-Apr-15 21:57N 40°38' W 074°08'0 0.0
2017-Apr-15 21:30N 40°38' W 074°08'0 0.0
2017-Apr-15 21:00N 40°38' W 074°08'0 0.0
2017-Apr-15 20:30N 40°38' W 074°08'0 0.0
2017-Apr-15 20:00N 40°38' W 074°08'0 0.0
2017-Apr-15 19:30N 40°38' W 074°08'0 0.0
2017-Apr-15 19:00N 40°38' W 074°08'0 0.0
2017-Apr-15 18:30N 40°38' W 074°08'0 0.0
2017-Apr-15 18:00N 40°38' W 074°08'0 0.0
2017-Apr-15 17:30N 40°38' W 074°08'0 0.0
2017-Apr-15 16:58N 40°38' W 074°08'0 0.0
2017-Apr-15 16:30N 40°38' W 074°08'0 0.0
2017-Apr-15 16:00N 40°38' W 074°08'0 0.0
2017-Apr-15 15:30N 40°38' W 074°08'0 0.0
2017-Apr-15 15:00N 40°38' W 074°08'0 0.0
2017-Apr-15 14:30N 40°38' W 074°08'0 0.1
2017-Apr-15 13:30N 40°39' W 074°08'0 0.1
2017-Apr-15 13:00N 40°39' W 074°08'4 8.6
2017-Apr-15 12:30N 40°36' W 074°12'4 2.1
2017-Apr-15 10:35N 40°32' W 074°15'0 0.3
2017-Apr-15 10:30N 40°33' W 074°15'0 0.1
2017-Apr-15 09:29N 40°33' W 074°15'4 7.5
2017-Apr-15 08:55N 40°36' W 074°12'3 7.9
2017-Apr-15 08:30N 40°39' W 074°10'2 3.0
2017-Apr-15 08:00N 40°38' W 074°08'0 0.0
2017-Apr-15 07:30N 40°38' W 074°08'0 0.0
2017-Apr-15 07:00N 40°38' W 074°08'0 0.0
2017-Apr-15 06:30N 40°38' W 074°08'0 0.0
2017-Apr-15 06:00N 40°38' W 074°08'0 0.0
2017-Apr-15 05:30N 40°38' W 074°08'0 0.0
2017-Apr-15 05:00N 40°38' W 074°08'0 0.0
2017-Apr-15 04:30N 40°38' W 074°08'0 0.0
2017-Apr-15 04:00N 40°38' W 074°08'0 0.0
2017-Apr-15 03:30N 40°38' W 074°08'0 0.0
2017-Apr-15 03:00N 40°38' W 074°08'0 0.0
2017-Apr-15 02:30N 40°38' W 074°08'0 0.0
2017-Apr-15 01:57N 40°38' W 074°08'0 0.0
2017-Apr-15 01:30N 40°38' W 074°08'0 0.0
2017-Apr-15 01:00N 40°38' W 074°08'0 0.0
2017-Apr-15 00:30N 40°38' W 074°08'0 0.0
2017-Apr-14 23:57N 40°38' W 074°08'0 0.0
2017-Apr-14 23:30N 40°38' W 074°08'0 0.0
2017-Apr-14 22:57N 40°38' W 074°08'0 0.0
2017-Apr-14 22:30N 40°38' W 074°08'0 0.0
2017-Apr-14 21:57N 40°38' W 074°08'2 4.6
2017-Apr-14 21:30N 40°39' W 074°05'0 0.0
2017-Apr-14 21:00N 40°39' W 074°05'1 1.6
2017-Apr-14 20:30N 40°39' W 074°04'1 1.9
2017-Apr-14 20:00N 40°38' W 074°04'3 6.2
2017-Apr-14 19:30N 40°38' W 074°08'0 0.0
2017-Apr-14 19:00N 40°38' W 074°08'0 0.0
2017-Apr-14 18:30N 40°38' W 074°08'0 0.0
2017-Apr-14 18:00N 40°38' W 074°08'1 2.5
2017-Apr-14 17:30N 40°39' W 074°09'3 5.5
2017-Apr-14 17:00N 40°37' W 074°12'4 7.1
2017-Apr-14 16:29N 40°38' W 074°08'0 0.0
2017-Apr-14 15:59N 40°38' W 074°08'0 0.0
2017-Apr-14 15:29N 40°38' W 074°08'0 0.0
2017-Apr-14 14:59N 40°38' W 074°08'0 0.0
2017-Apr-14 14:11N 40°38' W 074°08'0 0.0
2017-Apr-14 13:29N 40°38' W 074°08'0 0.0
2017-Apr-14 12:59N 40°38' W 074°08'0 0.0
2017-Apr-14 12:23N 40°38' W 074°08'0 0.0
2017-Apr-14 11:53N 40°38' W 074°08'0 0.0
2017-Apr-14 11:26N 40°38' W 074°08'0 0.0
2017-Apr-14 10:59N 40°38' W 074°08'1 2.5
2017-Apr-14 10:30N 40°39' W 074°09'0 0.2
2017-Apr-14 10:00N 40°40' W 074°09'2 3.4
2017-Apr-14 09:30N 40°39' W 074°07'2 4.9
2017-Apr-14 09:00N 40°38' W 074°03'0 0.7
2017-Apr-14 08:30N 40°38' W 074°03'2 3.7
2017-Apr-14 08:00N 40°39' W 074°05'2 3.0
2017-Apr-14 07:22N 40°38' W 074°08'0 0.0
2017-Apr-14 06:58N 40°38' W 074°08'0 0.0
2017-Apr-14 06:22N 40°38' W 074°08'0 0.0
2017-Apr-14 05:58N 40°38' W 074°08'0 0.0
2017-Apr-14 05:28N 40°38' W 074°08'0 0.0
2017-Apr-14 04:58N 40°38' W 074°08'0 0.0
2017-Apr-14 04:28N 40°38' W 074°08'0 0.0
2017-Apr-14 03:58N 40°38' W 074°08'0 0.0
2017-Apr-14 03:25N 40°38' W 074°08'0 0.0
2017-Apr-14 02:55N 40°38' W 074°08'0 0.0
2017-Apr-14 02:25N 40°38' W 074°08'0 0.0
2017-Apr-14 01:55N 40°38' W 074°08'0 0.0
2017-Apr-14 01:28N 40°38' W 074°08'0 0.0
2017-Apr-14 00:49N 40°38' W 074°08'0 0.0
2017-Apr-14 00:28N 40°38' W 074°08'0 0.0
2017-Apr-13 23:55N 40°38' W 074°08'0 0.0
2017-Apr-13 23:25N 40°38' W 074°08'0 0.0
2017-Apr-13 22:22N 40°38' W 074°08'0 0.0
2017-Apr-13 21:58N 40°38' W 074°08'0 0.0
2017-Apr-13 21:28N 40°38' W 074°08'0 0.0
2017-Apr-13 20:58N 40°38' W 074°08'0 0.0
2017-Apr-13 20:22N 40°38' W 074°08'0 0.0
2017-Apr-13 19:58N 40°38' W 074°08'0 0.0
2017-Apr-13 19:26N 40°38' W 074°08'2 5.1
2017-Apr-13 19:01N 40°39' W 074°05'3 6.8
2017-Apr-13 18:31N 40°36' W 074°03'3 6.6
2017-Apr-13 18:00N 40°39' W 074°05'2 4.1
2017-Apr-13 17:26N 40°38' W 074°08'0 0.0
2017-Apr-13 16:59N 40°38' W 074°08'0 0.0
2017-Apr-13 16:26N 40°38' W 074°08'0 0.0
2017-Apr-13 15:59N 40°38' W 074°08'0 0.8
2017-Apr-13 15:30N 40°39' W 074°08'2 3.0
2017-Apr-13 15:00N 40°40' W 074°08'3 3.0
2017-Apr-13 14:01N 40°39' W 074°05'3 5.8
2017-Apr-13 13:31N 40°36' W 074°03'2 3.2
2017-Apr-13 13:00N 40°38' W 074°03'2 4.0
2017-Apr-13 12:30N 40°39' W 074°06'0 0.0
2017-Apr-13 12:01N 40°39' W 074°06'4 8.6
2017-Apr-13 11:30N 40°38' W 074°11'0 0.0
2017-Apr-13 11:00N 40°38' W 074°11'0 0.4
2017-Apr-13 10:30N 40°39' W 074°11'3 6.9
2017-Apr-13 10:00N 40°39' W 074°07'1 1.7
2017-Apr-13 09:30N 40°38' W 074°08'0 0.0
2017-Apr-13 09:00N 40°38' W 074°08'0 0.0
2017-Apr-13 08:30N 40°38' W 074°08'0 0.0
2017-Apr-13 07:57N 40°38' W 074°08'0 0.0
2017-Apr-13 07:30N 40°38' W 074°08'0 0.0
2017-Apr-13 07:00N 40°38' W 074°08'0 0.0
2017-Apr-13 06:30N 40°38' W 074°08'0 0.0
2017-Apr-13 06:00N 40°38' W 074°08'0 0.0
2017-Apr-13 05:30N 40°38' W 074°08'0 0.0
2017-Apr-13 05:00N 40°38' W 074°08'0 0.0
2017-Apr-13 04:30N 40°38' W 074°08'0 0.0
2017-Apr-13 04:00N 40°38' W 074°08'0 0.0
2017-Apr-13 03:30N 40°38' W 074°08'0 0.0
2017-Apr-13 03:00N 40°38' W 074°08'0 0.0
2017-Apr-13 02:30N 40°38' W 074°08'0 0.0
2017-Apr-13 02:00N 40°38' W 074°08'0 0.0
2017-Apr-13 01:30N 40°38' W 074°08'0 0.0
2017-Apr-13 01:00N 40°38' W 074°08'0 0.0
2017-Apr-13 00:30N 40°38' W 074°08'0 0.0
2017-Apr-13 00:00N 40°38' W 074°08'0 0.0
2017-Apr-12 23:30N 40°38' W 074°08'0 0.0
2017-Apr-12 23:00N 40°38' W 074°08'0 0.0
2017-Apr-12 22:30N 40°38' W 074°08'1 2.1
2017-Apr-12 22:00N 40°39' W 074°09'3 5.2
2017-Apr-12 21:30N 40°42' W 074°09'2 4.5
2017-Apr-12 21:00N 40°40' W 074°08'2 3.2
2017-Apr-12 20:31N 40°39' W 074°07'3 6.2
2017-Apr-12 20:00N 40°40' W 074°03'2 4.7
2017-Apr-12 19:31N 40°41' W 074°00'3 5.4
2017-Apr-12 19:00N 40°40' W 074°03'4 7.6
2017-Apr-12 18:30N 40°38' W 074°08'0 0.0
2017-Apr-12 17:58N 40°38' W 074°08'0 0.0
2017-Apr-12 17:25N 40°38' W 074°08'0 0.0
2017-Apr-12 16:52N 40°38' W 074°08'0 0.0
2017-Apr-12 16:28N 40°38' W 074°08'0 0.0
2017-Apr-12 15:55N 40°38' W 074°08'0 0.0
2017-Apr-12 15:28N 40°38' W 074°08'0 0.0
2017-Apr-12 14:58N 40°38' W 074°08'0 0.0
2017-Apr-12 14:28N 40°38' W 074°08'0 0.0
2017-Apr-12 13:28N 40°38' W 074°08'0 0.0
2017-Apr-12 12:58N 40°38' W 074°08'0 0.0
2017-Apr-12 12:28N 40°38' W 074°08'0 0.0
2017-Apr-12 11:58N 40°38' W 074°08'0 0.0
2017-Apr-12 11:28N 40°38' W 074°08'0 0.0
2017-Apr-12 10:58N 40°38' W 074°08'0 0.0
2017-Apr-12 10:25N 40°38' W 074°08'0 0.0
2017-Apr-12 09:58N 40°38' W 074°08'0 0.0
2017-Apr-12 09:28N 40°38' W 074°08'0 0.0
2017-Apr-12 08:58N 40°38' W 074°08'0 0.0
2017-Apr-12 08:28N 40°38' W 074°08'0 0.0
2017-Apr-12 07:58N 40°38' W 074°08'0 0.0
2017-Apr-12 07:28N 40°38' W 074°08'0 0.0
2017-Apr-12 06:58N 40°38' W 074°08'0 0.0
2017-Apr-12 06:13N 40°38' W 074°08'0 0.0
2017-Apr-12 05:52N 40°38' W 074°08'0 0.0
2017-Apr-12 05:28N 40°38' W 074°08'0 0.0
2017-Apr-12 04:55N 40°38' W 074°08'0 0.0
2017-Apr-12 04:28N 40°38' W 074°08'0 0.0
2017-Apr-12 03:58N 40°38' W 074°08'0 0.0
2017-Apr-12 03:28N 40°38' W 074°08'0 0.0
2017-Apr-12 02:55N 40°38' W 074°08'0 0.0
2017-Apr-12 02:28N 40°38' W 074°08'0 0.0
2017-Apr-12 01:58N 40°38' W 074°08'0 0.1
2017-Apr-12 01:31N 40°39' W 074°08'510.0
2017-Apr-12 01:00N 40°41' W 074°02'1 2.7
2017-Apr-12 00:30N 40°41' W 074°00'3 5.6
2017-Apr-12 00:00N 40°40' W 074°03'4 7.3
2017-Apr-11 23:30N 40°39' W 074°08'3 5.2
2017-Apr-11 23:00N 40°41' W 074°08'1 2.0
2017-Apr-11 22:30N 40°42' W 074°09'0 0.1
2017-Apr-11 22:00N 40°42' W 074°09'3 5.4
2017-Apr-11 21:30N 40°39' W 074°09'4 7.2
2017-Apr-11 21:01N 40°40' W 074°04'0 0.2
2017-Apr-11 20:30N 40°40' W 074°04'0 0.0
2017-Apr-11 20:00N 40°40' W 074°04'0 0.0
2017-Apr-11 19:30N 40°40' W 074°04'0 0.0
2017-Apr-11 19:00N 40°40' W 074°04'0 0.0
2017-Apr-11 18:30N 40°40' W 074°04'0 0.0
2017-Apr-11 18:00N 40°40' W 074°04'0 0.0
2017-Apr-11 17:30N 40°40' W 074°04'0 0.0
2017-Apr-11 17:00N 40°40' W 074°04'0 0.0
2017-Apr-11 16:30N 40°40' W 074°04'0 0.0
2017-Apr-11 16:00N 40°40' W 074°04'0 0.0
2017-Apr-11 15:30N 40°40' W 074°04'0 0.0
2017-Apr-11 15:00N 40°40' W 074°04'0 0.0
2017-Apr-11 14:30N 40°40' W 074°04'0 0.0
2017-Apr-11 13:30N 40°40' W 074°04'0 0.0
2017-Apr-11 13:00N 40°40' W 074°04'0 0.4
2017-Apr-11 12:29N 40°40' W 074°04'0 0.0
2017-Apr-11 11:59N 40°40' W 074°04'0 0.0
2017-Apr-11 11:29N 40°40' W 074°04'0 0.0
2017-Apr-11 10:59N 40°40' W 074°04'0 0.0
2017-Apr-11 10:29N 40°40' W 074°04'0 0.0
2017-Apr-11 09:56N 40°40' W 074°04'0 0.0
2017-Apr-11 09:29N 40°40' W 074°04'0 0.0
2017-Apr-11 08:58N 40°40' W 074°04'0 0.0
2017-Apr-11 08:29N 40°40' W 074°04'0 0.0
2017-Apr-11 07:59N 40°40' W 074°04'0 0.0
2017-Apr-11 07:29N 40°40' W 074°04'0 0.0
2017-Apr-11 06:59N 40°40' W 074°04'0 0.0
2017-Apr-11 06:29N 40°40' W 074°04'0 0.0
2017-Apr-11 05:59N 40°40' W 074°04'0 0.0
2017-Apr-11 05:29N 40°40' W 074°04'0 0.0
2017-Apr-11 04:59N 40°40' W 074°04'1 1.1
2017-Apr-11 04:30N 40°40' W 074°04'3 5.3
2017-Apr-11 04:00N 40°41' W 074°01'0 0.0
2017-Apr-11 03:30N 40°41' W 074°01'0 0.0
2017-Apr-11 03:00N 40°41' W 074°01'0 0.0
2017-Apr-11 02:30N 40°41' W 074°01'0 0.0
2017-Apr-11 02:00N 40°41' W 074°01'0 0.0
2017-Apr-11 01:30N 40°41' W 074°01'0 0.1
2017-Apr-11 01:00N 40°41' W 074°01'1 1.8
2017-Apr-11 00:30N 40°41' W 074°02'1 1.9
2017-Apr-11 00:00N 40°41' W 074°01'0 0.2
2017-Apr-10 23:28N 40°41' W 074°01'0 0.0
2017-Apr-10 23:01N 40°41' W 074°01'0 0.0
2017-Apr-10 22:28N 40°41' W 074°01'0 0.9
2017-Apr-10 22:01N 40°41' W 074°00'0 0.2
2017-Apr-10 21:30N 40°41' W 074°00'4 8.1
2017-Apr-10 21:00N 40°39' W 074°05'3 6.0
2017-Apr-10 20:30N 40°39' W 074°09'2 4.9
2017-Apr-10 20:01N 40°42' W 074°09'2 4.6
2017-Apr-10 19:30N 40°40' W 074°09'1 2.4
2017-Apr-10 18:59N 40°38' W 074°08'0 0.0
2017-Apr-10 18:29N 40°38' W 074°08'0 0.0
2017-Apr-10 17:59N 40°38' W 074°08'0 0.0
2017-Apr-10 17:26N 40°38' W 074°08'0 0.0
2017-Apr-10 16:59N 40°38' W 074°08'0 0.0
2017-Apr-10 16:29N 40°38' W 074°08'0 0.0
2017-Apr-10 16:00N 40°38' W 074°08'0 0.0
2017-Apr-10 15:30N 40°38' W 074°08'0 0.0
2017-Apr-10 15:00N 40°38' W 074°08'0 0.0
2017-Apr-10 14:30N 40°38' W 074°08'3 3.3
2017-Apr-10 13:30N 40°38' W 074°12'1 1.3
2017-Apr-10 13:00N 40°38' W 074°12'3 5.4
2017-Apr-10 12:30N 40°39' W 074°08'3 5.5
2017-Apr-10 12:00N 40°39' W 074°05'2 4.1
2017-Apr-10 11:30N 40°37' W 074°03'2 4.7
2017-Apr-10 11:00N 40°39' W 074°06'2 3.1
2017-Apr-10 10:28N 40°38' W 074°08'0 0.0
2017-Apr-10 09:57N 40°38' W 074°08'0 0.0
2017-Apr-10 09:30N 40°38' W 074°08'0 0.0
2017-Apr-10 09:00N 40°38' W 074°08'0 0.0
2017-Apr-10 08:30N 40°38' W 074°08'0 0.0
2017-Apr-10 07:57N 40°38' W 074°08'0 0.0
2017-Apr-10 07:30N 40°38' W 074°08'0 0.0
2017-Apr-10 07:00N 40°38' W 074°08'0 0.0
2017-Apr-10 06:30N 40°38' W 074°08'0 0.0
2017-Apr-10 06:00N 40°38' W 074°08'0 0.0
2017-Apr-10 05:30N 40°38' W 074°08'0 0.0
2017-Apr-10 05:00N 40°38' W 074°08'0 0.0
2017-Apr-10 04:30N 40°38' W 074°08'0 0.0
2017-Apr-10 04:00N 40°38' W 074°08'1 2.9
2017-Apr-10 03:31N 40°39' W 074°10'5 9.3
2017-Apr-10 03:00N 40°35' W 074°13'3 5.3
2017-Apr-10 02:24N 40°32' W 074°15'0 0.0
2017-Apr-10 01:56N 40°32' W 074°15'0 0.0
2017-Apr-10 01:30N 40°32' W 074°15'0 0.2
2017-Apr-10 01:00N 40°32' W 074°15'4 4.5
2017-Apr-10 00:10N 40°35' W 074°12'1 4.9
2017-Apr-09 23:59N 40°36' W 074°12'3 5.1
2017-Apr-09 23:30N 40°39' W 074°11'3 5.6
2017-Apr-09 23:00N 40°39' W 074°08'0 0.3
2017-Apr-09 22:29N 40°38' W 074°08'0 0.0
2017-Apr-09 21:59N 40°38' W 074°08'0 0.0
2017-Apr-09 21:29N 40°38' W 074°08'0 0.0
2017-Apr-09 20:59N 40°38' W 074°08'0 0.0
2017-Apr-09 20:23N 40°38' W 074°08'0 0.0
2017-Apr-09 19:59N 40°38' W 074°08'0 0.0
2017-Apr-09 19:26N 40°38' W 074°08'0 0.0
2017-Apr-09 18:59N 40°38' W 074°08'0 0.0
2017-Apr-09 18:23N 40°38' W 074°08'0 0.0
2017-Apr-09 17:53N 40°38' W 074°08'0 0.0
2017-Apr-09 17:29N 40°38' W 074°08'0 0.0
2017-Apr-09 16:59N 40°38' W 074°08'0 0.0
2017-Apr-09 16:29N 40°38' W 074°08'0 0.0
2017-Apr-09 15:59N 40°38' W 074°08'0 0.0
2017-Apr-09 15:29N 40°38' W 074°08'0 0.0
2017-Apr-09 14:59N 40°38' W 074°08'  

Dump ship's entire track history